sensor_id;sensor_type;location;lat;lon;timestamp;temperature;humidity
39655;DHT22;25336;59.944;11.010;2024-02-21T00:01:01;4.70;75.70
39655;DHT22;25336;59.944;11.010;2024-02-21T00:03:27;4.70;75.70
39655;DHT22;25336;59.944;11.010;2024-02-21T00:05:53;4.70;75.70
39655;DHT22;25336;59.944;11.010;2024-02-21T00:08:19;4.70;75.80
39655;DHT22;25336;59.944;11.010;2024-02-21T00:10:45;4.80;75.90
39655;DHT22;25336;59.944;11.010;2024-02-21T00:13:12;4.80;76.00
39655;DHT22;25336;59.944;11.010;2024-02-21T00:15:38;4.80;76.00
39655;DHT22;25336;59.944;11.010;2024-02-21T00:18:04;4.80;76.00
39655;DHT22;25336;59.944;11.010;2024-02-21T00:20:30;4.80;76.00
39655;DHT22;25336;59.944;11.010;2024-02-21T00:22:56;4.80;76.10
39655;DHT22;25336;59.944;11.010;2024-02-21T00:25:22;4.80;76.10
39655;DHT22;25336;59.944;11.010;2024-02-21T00:27:47;4.80;76.20
39655;DHT22;25336;59.944;11.010;2024-02-21T00:30:13;4.90;76.20
39655;DHT22;25336;59.944;11.010;2024-02-21T00:32:39;4.90;76.20
39655;DHT22;25336;59.944;11.010;2024-02-21T00:35:05;4.90;76.20
39655;DHT22;25336;59.944;11.010;2024-02-21T00:37:31;4.90;76.20
39655;DHT22;25336;59.944;11.010;2024-02-21T00:39:57;4.90;76.20
39655;DHT22;25336;59.944;11.010;2024-02-21T00:42:23;4.90;76.20
39655;DHT22;25336;59.944;11.010;2024-02-21T00:44:49;4.90;76.30
39655;DHT22;25336;59.944;11.010;2024-02-21T00:47:15;4.90;76.30
39655;DHT22;25336;59.944;11.010;2024-02-21T00:49:42;4.90;76.30
39655;DHT22;25336;59.944;11.010;2024-02-21T00:52:08;5.00;76.30
39655;DHT22;25336;59.944;11.010;2024-02-21T00:54:33;5.00;76.30
39655;DHT22;25336;59.944;11.010;2024-02-21T00:56:59;5.00;76.20
39655;DHT22;25336;59.944;11.010;2024-02-21T00:59:25;5.00;76.20
39655;DHT22;25336;59.944;11.010;2024-02-21T01:01:50;5.00;76.10
39655;DHT22;25336;59.944;11.010;2024-02-21T01:04:18;5.00;76.10
39655;DHT22;25336;59.944;11.010;2024-02-21T01:06:50;5.00;76.10
39655;DHT22;25336;59.944;11.010;2024-02-21T01:09:16;5.00;76.00
39655;DHT22;25336;59.944;11.010;2024-02-21T01:11:41;5.00;75.90
39655;DHT22;25336;59.944;11.010;2024-02-21T01:14:07;5.00;75.90
39655;DHT22;25336;59.944;11.010;2024-02-21T01:16:33;5.00;76.00
39655;DHT22;25336;59.944;11.010;2024-02-21T01:18:58;5.00;76.00
39655;DHT22;25336;59.944;11.010;2024-02-21T01:21:25;5.00;76.00
39655;DHT22;25336;59.944;11.010;2024-02-21T01:23:52;5.00;75.90
39655;DHT22;25336;59.944;11.010;2024-02-21T01:26:17;5.00;75.90
39655;DHT22;25336;59.944;11.010;2024-02-21T01:28:43;4.30;75.40
39655;DHT22;25336;59.944;11.010;2024-02-21T01:31:09;5.00;75.80
39655;DHT22;25336;59.944;11.010;2024-02-21T01:33:36;5.00;75.80
39655;DHT22;25336;59.944;11.010;2024-02-21T01:36:04;5.00;75.80
39655;DHT22;25336;59.944;11.010;2024-02-21T01:38:33;5.00;75.90
39655;DHT22;25336;59.944;11.010;2024-02-21T01:40:59;5.10;75.90
39655;DHT22;25336;59.944;11.010;2024-02-21T01:43:25;5.10;76.00
39655;DHT22;25336;59.944;11.010;2024-02-21T01:45:55;5.10;76.00
39655;DHT22;25336;59.944;11.010;2024-02-21T01:48:25;5.10;76.00
39655;DHT22;25336;59.944;11.010;2024-02-21T01:50:52;5.10;75.90
39655;DHT22;25336;59.944;11.010;2024-02-21T01:53:29;5.10;75.80
39655;DHT22;25336;59.944;11.010;2024-02-21T01:55:55;5.90;76.20
39655;DHT22;25336;59.944;11.010;2024-02-21T01:58:22;5.10;75.70
39655;DHT22;25336;59.944;11.010;2024-02-21T02:00:48;5.10;75.70
39655;DHT22;25336;59.944;11.010;2024-02-21T02:03:15;5.10;75.70
39655;DHT22;25336;59.944;11.010;2024-02-21T02:05:47;5.10;75.70
39655;DHT22;25336;59.944;11.010;2024-02-21T02:08:14;5.10;75.70
39655;DHT22;25336;59.944;11.010;2024-02-21T02:10:40;5.70;76.10
39655;DHT22;25336;59.944;11.010;2024-02-21T02:13:06;5.10;75.80
39655;DHT22;25336;59.944;11.010;2024-02-21T02:15:42;5.10;75.80
39655;DHT22;25336;59.944;11.010;2024-02-21T02:18:09;5.10;75.80
39655;DHT22;25336;59.944;11.010;2024-02-21T02:20:36;5.10;75.80
39655;DHT22;25336;59.944;11.010;2024-02-21T02:23:11;5.10;75.70
39655;DHT22;25336;59.944;11.010;2024-02-21T02:25:38;5.10;75.70
39655;DHT22;25336;59.944;11.010;2024-02-21T02:28:05;5.10;75.50
39655;DHT22;25336;59.944;11.010;2024-02-21T02:30:38;5.10;75.50
39655;DHT22;25336;59.944;11.010;2024-02-21T02:33:05;5.10;75.50
39655;DHT22;25336;59.944;11.010;2024-02-21T02:35:31;5.10;75.50
39655;DHT22;25336;59.944;11.010;2024-02-21T02:37:57;5.10;75.60
39655;DHT22;25336;59.944;11.010;2024-02-21T02:40:23;5.10;75.60
39655;DHT22;25336;59.944;11.010;2024-02-21T02:42:51;5.10;75.60
39655;DHT22;25336;59.944;11.010;2024-02-21T02:45:17;5.10;75.60
39655;DHT22;25336;59.944;11.010;2024-02-21T02:47:46;5.10;75.60
39655;DHT22;25336;59.944;11.010;2024-02-21T02:50:15;5.10;75.60
39655;DHT22;25336;59.944;11.010;2024-02-21T02:52:40;5.10;75.50
39655;DHT22;25336;59.944;11.010;2024-02-21T02:55:06;5.10;75.50
39655;DHT22;25336;59.944;11.010;2024-02-21T02:57:32;5.10;75.50
39655;DHT22;25336;59.944;11.010;2024-02-21T03:00:02;4.30;75.00
39655;DHT22;25336;59.944;11.010;2024-02-21T03:02:28;5.10;75.50
39655;DHT22;25336;59.944;11.010;2024-02-21T03:04:53;5.10;75.50
39655;DHT22;25336;59.944;11.010;2024-02-21T03:07:20;5.10;75.50
39655;DHT22;25336;59.944;11.010;2024-02-21T03:09:45;5.10;75.50
39655;DHT22;25336;59.944;11.010;2024-02-21T03:12:11;5.10;75.50
39655;DHT22;25336;59.944;11.010;2024-02-21T03:14:37;5.20;75.50
39655;DHT22;25336;59.944;11.010;2024-02-21T03:17:03;5.10;75.40
39655;DHT22;25336;59.944;11.010;2024-02-21T03:19:33;5.10;75.50
39655;DHT22;25336;59.944;11.010;2024-02-21T03:21:58;5.10;75.50
39655;DHT22;25336;59.944;11.010;2024-02-21T03:24:24;5.20;75.60
39655;DHT22;25336;59.944;11.010;2024-02-21T03:26:50;4.40;75.10
39655;DHT22;25336;59.944;11.010;2024-02-21T03:29:16;5.10;75.50
39655;DHT22;25336;59.944;11.010;2024-02-21T03:31:42;5.20;75.50
39655;DHT22;25336;59.944;11.010;2024-02-21T03:34:10;5.20;75.50
39655;DHT22;25336;59.944;11.010;2024-02-21T03:36:36;5.20;75.50
39655;DHT22;25336;59.944;11.010;2024-02-21T03:39:02;5.10;75.50
39655;DHT22;25336;59.944;11.010;2024-02-21T03:41:28;5.20;75.60
39655;DHT22;25336;59.944;11.010;2024-02-21T03:43:55;5.20;75.60
39655;DHT22;25336;59.944;11.010;2024-02-21T03:46:20;5.20;75.50
39655;DHT22;25336;59.944;11.010;2024-02-21T03:48:46;5.20;75.50
39655;DHT22;25336;59.944;11.010;2024-02-21T03:51:12;5.10;76.10
39655;DHT22;25336;59.944;11.010;2024-02-21T03:53:38;5.10;75.40
39655;DHT22;25336;59.944;11.010;2024-02-21T03:56:03;5.10;75.40
39655;DHT22;25336;59.944;11.010;2024-02-21T03:58:32;5.10;75.40
39655;DHT22;25336;59.944;11.010;2024-02-21T04:01:01;5.10;75.40
39655;DHT22;25336;59.944;11.010;2024-02-21T04:03:30;5.10;75.50
39655;DHT22;25336;59.944;11.010;2024-02-21T04:05:56;5.10;75.50
39655;DHT22;25336;59.944;11.010;2024-02-21T04:08:23;5.10;75.50
39655;DHT22;25336;59.944;11.010;2024-02-21T04:10:49;5.10;75.50
39655;DHT22;25336;59.944;11.010;2024-02-21T04:13:18;5.10;75.60
39655;DHT22;25336;59.944;11.010;2024-02-21T04:15:45;5.10;75.70
39655;DHT22;25336;59.944;11.010;2024-02-21T04:18:11;5.00;75.60
39655;DHT22;25336;59.944;11.010;2024-02-21T04:20:37;5.00;75.70
39655;DHT22;25336;59.944;11.010;2024-02-21T04:23:02;5.00;75.70
39655;DHT22;25336;59.944;11.010;2024-02-21T04:25:28;5.00;75.80
39655;DHT22;25336;59.944;11.010;2024-02-21T04:27:54;5.00;75.90
39655;DHT22;25336;59.944;11.010;2024-02-21T04:30:20;5.00;76.00
39655;DHT22;25336;59.944;11.010;2024-02-21T04:32:45;5.00;76.00
39655;DHT22;25336;59.944;11.010;2024-02-21T04:35:11;5.00;75.90
39655;DHT22;25336;59.944;11.010;2024-02-21T04:37:37;5.00;75.90
39655;DHT22;25336;59.944;11.010;2024-02-21T04:40:02;5.00;76.00
39655;DHT22;25336;59.944;11.010;2024-02-21T04:42:28;5.00;76.00
39655;DHT22;25336;59.944;11.010;2024-02-21T04:44:54;5.00;75.90
39655;DHT22;25336;59.944;11.010;2024-02-21T04:47:19;5.00;75.90
39655;DHT22;25336;59.944;11.010;2024-02-21T04:49:46;5.00;75.90
39655;DHT22;25336;59.944;11.010;2024-02-21T04:52:12;4.60;75.70
39655;DHT22;25336;59.944;11.010;2024-02-21T04:54:38;5.00;75.80
39655;DHT22;25336;59.944;11.010;2024-02-21T04:57:04;5.00;75.80
39655;DHT22;25336;59.944;11.010;2024-02-21T04:59:30;5.00;75.80
39655;DHT22;25336;59.944;11.010;2024-02-21T05:01:56;5.00;75.70
39655;DHT22;25336;59.944;11.010;2024-02-21T05:04:22;5.00;75.80
39655;DHT22;25336;59.944;11.010;2024-02-21T05:06:48;5.00;75.90
39655;DHT22;25336;59.944;11.010;2024-02-21T05:09:14;4.90;75.90
39655;DHT22;25336;59.944;11.010;2024-02-21T05:11:39;4.90;76.00
39655;DHT22;25336;59.944;11.010;2024-02-21T05:14:05;4.80;75.80
39655;DHT22;25336;59.944;11.010;2024-02-21T05:16:32;4.80;75.90
39655;DHT22;25336;59.944;11.010;2024-02-21T05:18:57;4.80;75.90
39655;DHT22;25336;59.944;11.010;2024-02-21T05:21:23;4.80;76.00
39655;DHT22;25336;59.944;11.010;2024-02-21T05:23:50;4.80;76.10
39655;DHT22;25336;59.944;11.010;2024-02-21T05:26:23;4.70;76.10
39655;DHT22;25336;59.944;11.010;2024-02-21T05:28:49;4.80;76.40
39655;DHT22;25336;59.944;11.010;2024-02-21T05:31:17;4.70;76.40
39655;DHT22;25336;59.944;11.010;2024-02-21T05:33:44;3.90;76.10
39655;DHT22;25336;59.944;11.010;2024-02-21T05:36:10;4.70;76.50
39655;DHT22;25336;59.944;11.010;2024-02-21T05:38:36;4.70;76.50
39655;DHT22;25336;59.944;11.010;2024-02-21T05:41:02;4.70;76.50
39655;DHT22;25336;59.944;11.010;2024-02-21T05:43:28;4.70;76.50
39655;DHT22;25336;59.944;11.010;2024-02-21T05:45:53;4.70;76.50
39655;DHT22;25336;59.944;11.010;2024-02-21T05:48:20;4.70;76.50
39655;DHT22;25336;59.944;11.010;2024-02-21T05:50:46;4.70;76.50
39655;DHT22;25336;59.944;11.010;2024-02-21T05:53:11;4.70;76.50
39655;DHT22;25336;59.944;11.010;2024-02-21T05:55:38;4.70;76.50
39655;DHT22;25336;59.944;11.010;2024-02-21T05:58:04;4.70;76.50
39655;DHT22;25336;59.944;11.010;2024-02-21T06:00:32;4.70;76.60
39655;DHT22;25336;59.944;11.010;2024-02-21T06:02:58;4.70;76.60
39655;DHT22;25336;59.944;11.010;2024-02-21T06:05:24;4.70;76.50
39655;DHT22;25336;59.944;11.010;2024-02-21T06:07:50;4.70;76.50
39655;DHT22;25336;59.944;11.010;2024-02-21T06:10:15;4.70;76.50
39655;DHT22;25336;59.944;11.010;2024-02-21T06:12:41;4.70;76.50
39655;DHT22;25336;59.944;11.010;2024-02-21T06:15:07;4.70;76.40
39655;DHT22;25336;59.944;11.010;2024-02-21T06:17:33;4.60;76.40
39655;DHT22;25336;59.944;11.010;2024-02-21T06:19:59;4.60;76.40
39655;DHT22;25336;59.944;11.010;2024-02-21T06:22:24;4.60;76.40
39655;DHT22;25336;59.944;11.010;2024-02-21T06:24:50;4.60;76.40
39655;DHT22;25336;59.944;11.010;2024-02-21T06:27:16;4.60;76.40
39655;DHT22;25336;59.944;11.010;2024-02-21T06:29:42;4.50;76.50
39655;DHT22;25336;59.944;11.010;2024-02-21T06:32:08;4.50;76.50
39655;DHT22;25336;59.944;11.010;2024-02-21T06:34:34;4.50;76.50
39655;DHT22;25336;59.944;11.010;2024-02-21T06:37:00;4.50;76.50
39655;DHT22;25336;59.944;11.010;2024-02-21T06:39:25;4.50;76.60
39655;DHT22;25336;59.944;11.010;2024-02-21T06:41:51;4.50;76.60
39655;DHT22;25336;59.944;11.010;2024-02-21T06:44:19;4.50;76.70
39655;DHT22;25336;59.944;11.010;2024-02-21T06:46:45;4.50;76.70
39655;DHT22;25336;59.944;11.010;2024-02-21T06:49:10;4.50;76.80
39655;DHT22;25336;59.944;11.010;2024-02-21T06:51:44;4.40;76.80
39655;DHT22;25336;59.944;11.010;2024-02-21T06:54:10;4.40;76.90
39655;DHT22;25336;59.944;11.010;2024-02-21T06:56:37;4.40;77.00
39655;DHT22;25336;59.944;11.010;2024-02-21T06:59:03;4.50;77.10
39655;DHT22;25336;59.944;11.010;2024-02-21T07:01:32;4.50;77.10
39655;DHT22;25336;59.944;11.010;2024-02-21T07:03:58;4.50;77.10
39655;DHT22;25336;59.944;11.010;2024-02-21T07:06:23;4.50;77.00
39655;DHT22;25336;59.944;11.010;2024-02-21T07:08:50;4.50;76.90
39655;DHT22;25336;59.944;11.010;2024-02-21T07:11:17;4.50;77.00
39655;DHT22;25336;59.944;11.010;2024-02-21T07:13:42;4.50;76.90
39655;DHT22;25336;59.944;11.010;2024-02-21T07:16:08;4.50;76.90
39655;DHT22;25336;59.944;11.010;2024-02-21T07:18:34;4.50;77.00
39655;DHT22;25336;59.944;11.010;2024-02-21T07:21:00;4.50;76.90
39655;DHT22;25336;59.944;11.010;2024-02-21T07:23:25;4.60;76.80
39655;DHT22;25336;59.944;11.010;2024-02-21T07:25:51;4.60;76.80
39655;DHT22;25336;59.944;11.010;2024-02-21T07:28:17;4.60;76.80
39655;DHT22;25336;59.944;11.010;2024-02-21T07:30:43;4.60;76.80
39655;DHT22;25336;59.944;11.010;2024-02-21T07:33:09;4.60;76.80
39655;DHT22;25336;59.944;11.010;2024-02-21T07:35:35;4.60;76.80
39655;DHT22;25336;59.944;11.010;2024-02-21T07:38:04;4.60;77.00
39655;DHT22;25336;59.944;11.010;2024-02-21T07:40:30;4.60;77.00
39655;DHT22;25336;59.944;11.010;2024-02-21T07:42:56;4.60;77.10
39655;DHT22;25336;59.944;11.010;2024-02-21T07:45:22;4.60;77.10
39655;DHT22;25336;59.944;11.010;2024-02-21T07:47:50;4.60;77.10
39655;DHT22;25336;59.944;11.010;2024-02-21T07:50:16;5.10;77.50
39655;DHT22;25336;59.944;11.010;2024-02-21T07:52:42;4.70;77.10
39655;DHT22;25336;59.944;11.010;2024-02-21T07:55:08;4.70;77.10
39655;DHT22;25336;59.944;11.010;2024-02-21T07:57:36;4.70;77.00
39655;DHT22;25336;59.944;11.010;2024-02-21T08:00:02;4.80;76.90
39655;DHT22;25336;59.944;11.010;2024-02-21T08:02:29;4.80;76.90
39655;DHT22;25336;59.944;11.010;2024-02-21T08:04:55;4.80;76.70
39655;DHT22;25336;59.944;11.010;2024-02-21T08:07:20;4.80;76.60
39655;DHT22;25336;59.944;11.010;2024-02-21T08:09:46;4.80;76.60
39655;DHT22;25336;59.944;11.010;2024-02-21T08:12:12;4.80;76.60
39655;DHT22;25336;59.944;11.010;2024-02-21T08:14:38;4.80;76.70
39655;DHT22;25336;59.944;11.010;2024-02-21T08:17:03;4.90;76.50
39655;DHT22;25336;59.944;11.010;2024-02-21T08:19:30;4.80;76.30
39655;DHT22;25336;59.944;11.010;2024-02-21T08:21:55;4.90;76.30
39655;DHT22;25336;59.944;11.010;2024-02-21T08:24:21;4.90;76.30
39655;DHT22;25336;59.944;11.010;2024-02-21T08:26:48;4.90;76.20
39655;DHT22;25336;59.944;11.010;2024-02-21T08:29:14;4.80;76.10
39655;DHT22;25336;59.944;11.010;2024-02-21T08:31:40;4.90;76.10
39655;DHT22;25336;59.944;11.010;2024-02-21T08:34:05;4.80;76.00
39655;DHT22;25336;59.944;11.010;2024-02-21T08:36:35;4.80;76.00
39655;DHT22;25336;59.944;11.010;2024-02-21T08:39:01;4.80;75.90
39655;DHT22;25336;59.944;11.010;2024-02-21T08:41:31;4.80;75.90
39655;DHT22;25336;59.944;11.010;2024-02-21T08:43:56;4.90;76.10
39655;DHT22;25336;59.944;11.010;2024-02-21T08:46:23;4.90;76.00
39655;DHT22;25336;59.944;11.010;2024-02-21T08:48:50;4.90;76.20
39655;DHT22;25336;59.944;11.010;2024-02-21T08:51:19;4.90;76.10
39655;DHT22;25336;59.944;11.010;2024-02-21T08:53:46;4.90;76.00
39655;DHT22;25336;59.944;11.010;2024-02-21T08:56:12;5.00;75.90
39655;DHT22;25336;59.944;11.010;2024-02-21T08:58:39;5.00;75.70
39655;DHT22;25336;59.944;11.010;2024-02-21T09:01:05;5.00;75.60
39655;DHT22;25336;59.944;11.010;2024-02-21T09:03:38;5.50;76.00
39655;DHT22;25336;59.944;11.010;2024-02-21T09:06:07;5.00;75.40
39655;DHT22;25336;59.944;11.010;2024-02-21T09:08:33;5.00;75.40
39655;DHT22;25336;59.944;11.010;2024-02-21T09:11:02;5.00;75.40
39655;DHT22;25336;59.944;11.010;2024-02-21T09:13:28;5.00;75.40
39655;DHT22;25336;59.944;11.010;2024-02-21T09:15:55;5.10;75.30
39655;DHT22;25336;59.944;11.010;2024-02-21T09:18:21;5.90;75.70
39655;DHT22;25336;59.944;11.010;2024-02-21T09:20:46;6.20;75.80
39655;DHT22;25336;59.944;11.010;2024-02-21T09:23:13;6.00;75.80
39655;DHT22;25336;59.944;11.010;2024-02-21T09:25:39;5.30;75.30
39655;DHT22;25336;59.944;11.010;2024-02-21T09:28:05;4.90;75.10
39655;DHT22;25336;59.944;11.010;2024-02-21T09:30:35;4.90;75.10
39655;DHT22;25336;59.944;11.010;2024-02-21T09:33:00;4.90;75.10
39655;DHT22;25336;59.944;11.010;2024-02-21T09:35:27;5.90;75.80
39655;DHT22;25336;59.944;11.010;2024-02-21T09:37:54;4.90;75.20
39655;DHT22;25336;59.944;11.010;2024-02-21T09:40:20;4.90;74.90
39655;DHT22;25336;59.944;11.010;2024-02-21T09:42:47;4.90;74.90
39655;DHT22;25336;59.944;11.010;2024-02-21T09:45:23;5.20;75.10
39655;DHT22;25336;59.944;11.010;2024-02-21T09:50:49;5.00;74.80
39655;DHT22;25336;59.944;11.010;2024-02-21T09:53:16;4.90;74.90
39655;DHT22;25336;59.944;11.010;2024-02-21T09:55:43;4.90;74.80
39655;DHT22;25336;59.944;11.010;2024-02-21T09:58:09;5.10;74.80
39655;DHT22;25336;59.944;11.010;2024-02-21T10:00:38;6.20;75.60
39655;DHT22;25336;59.944;11.010;2024-02-21T10:03:04;4.90;74.90
39655;DHT22;25336;59.944;11.010;2024-02-21T10:05:36;4.90;74.90
39655;DHT22;25336;59.944;11.010;2024-02-21T10:08:03;5.00;74.90
39655;DHT22;25336;59.944;11.010;2024-02-21T10:10:29;5.00;74.90
39655;DHT22;25336;59.944;11.010;2024-02-21T10:12:56;5.00;74.80
39655;DHT22;25336;59.944;11.010;2024-02-21T10:15:24;4.10;74.30
39655;DHT22;25336;59.944;11.010;2024-02-21T10:17:58;5.00;74.90
39655;DHT22;25336;59.944;11.010;2024-02-21T10:20:25;5.00;74.60
39655;DHT22;25336;59.944;11.010;2024-02-21T10:23:00;5.00;74.40
39655;DHT22;25336;59.944;11.010;2024-02-21T10:25:27;5.00;74.30
39655;DHT22;25336;59.944;11.010;2024-02-21T10:27:53;5.00;74.40
39655;DHT22;25336;59.944;11.010;2024-02-21T10:30:19;5.00;74.50
39655;DHT22;25336;59.944;11.010;2024-02-21T10:32:51;5.00;75.30
39655;DHT22;25336;59.944;11.010;2024-02-21T10:35:31;5.10;74.20
39655;DHT22;25336;59.944;11.010;2024-02-21T10:37:57;5.10;73.90
39655;DHT22;25336;59.944;11.010;2024-02-21T10:40:28;5.00;73.90
39655;DHT22;25336;59.944;11.010;2024-02-21T10:43:05;5.00;73.90
39655;DHT22;25336;59.944;11.010;2024-02-21T10:45:35;5.00;73.90
39655;DHT22;25336;59.944;11.010;2024-02-21T10:48:12;5.00;74.00
39655;DHT22;25336;59.944;11.010;2024-02-21T10:50:52;4.90;73.90
39655;DHT22;25336;59.944;11.010;2024-02-21T10:58:46;4.80;73.70
39655;DHT22;25336;59.944;11.010;2024-02-21T11:01:12;4.80;73.80
39655;DHT22;25336;59.944;11.010;2024-02-21T11:03:42;4.80;73.90
39655;DHT22;25336;59.944;11.010;2024-02-21T11:06:11;4.80;74.00
39655;DHT22;25336;59.944;11.010;2024-02-21T11:08:37;4.80;73.90
39655;DHT22;25336;59.944;11.010;2024-02-21T11:11:05;4.80;74.00
39655;DHT22;25336;59.944;11.010;2024-02-21T11:13:37;4.90;74.10
39655;DHT22;25336;59.944;11.010;2024-02-21T11:16:11;4.80;73.70
39655;DHT22;25336;59.944;11.010;2024-02-21T11:18:37;4.90;73.80
39655;DHT22;25336;59.944;11.010;2024-02-21T11:21:04;5.00;74.00
39655;DHT22;25336;59.944;11.010;2024-02-21T11:23:31;5.00;73.90
39655;DHT22;25336;59.944;11.010;2024-02-21T11:28:32;5.10;73.20
39655;DHT22;25336;59.944;11.010;2024-02-21T11:31:14;5.10;73.30
39655;DHT22;25336;59.944;11.010;2024-02-21T11:33:43;5.20;72.90
39655;DHT22;25336;59.944;11.010;2024-02-21T11:36:24;5.20;73.10
39655;DHT22;25336;59.944;11.010;2024-02-21T11:38:51;5.30;72.70
39655;DHT22;25336;59.944;11.010;2024-02-21T11:41:17;5.30;72.70
39655;DHT22;25336;59.944;11.010;2024-02-21T11:43:43;5.40;72.60
39655;DHT22;25336;59.944;11.010;2024-02-21T11:46:08;5.40;72.50
39655;DHT22;25336;59.944;11.010;2024-02-21T11:48:35;5.40;72.40
39655;DHT22;25336;59.944;11.010;2024-02-21T11:51:00;5.50;72.30
39655;DHT22;25336;59.944;11.010;2024-02-21T11:53:26;5.60;72.20
39655;DHT22;25336;59.944;11.010;2024-02-21T11:55:56;5.60;71.90
39655;DHT22;25336;59.944;11.010;2024-02-21T11:58:22;5.60;71.70
39655;DHT22;25336;59.944;11.010;2024-02-21T12:00:48;5.60;71.90
39655;DHT22;25336;59.944;11.010;2024-02-21T12:03:14;5.60;71.70
39655;DHT22;25336;59.944;11.010;2024-02-21T12:05:41;5.70;71.70
39655;DHT22;25336;59.944;11.010;2024-02-21T12:08:07;5.70;71.40
39655;DHT22;25336;59.944;11.010;2024-02-21T12:10:36;5.70;71.30
39655;DHT22;25336;59.944;11.010;2024-02-21T12:13:11;5.70;71.20
39655;DHT22;25336;59.944;11.010;2024-02-21T12:15:39;5.70;71.00
39655;DHT22;25336;59.944;11.010;2024-02-21T12:18:05;5.70;71.10
39655;DHT22;25336;59.944;11.010;2024-02-21T12:20:31;5.80;71.10
39655;DHT22;25336;59.944;11.010;2024-02-21T12:23:00;5.80;71.10
39655;DHT22;25336;59.944;11.010;2024-02-21T12:25:26;5.80;70.90
39655;DHT22;25336;59.944;11.010;2024-02-21T12:27:52;5.80;70.90
39655;DHT22;25336;59.944;11.010;2024-02-21T12:30:18;5.80;70.70
39655;DHT22;25336;59.944;11.010;2024-02-21T12:32:45;5.80;70.90
39655;DHT22;25336;59.944;11.010;2024-02-21T12:35:11;5.80;70.60
39655;DHT22;25336;59.944;11.010;2024-02-21T12:37:37;5.80;70.80
39655;DHT22;25336;59.944;11.010;2024-02-21T12:40:05;5.80;70.70
39655;DHT22;25336;59.944;11.010;2024-02-21T12:42:33;5.80;70.60
39655;DHT22;25336;59.944;11.010;2024-02-21T12:44:59;5.70;70.50
39655;DHT22;25336;59.944;11.010;2024-02-21T12:47:25;5.70;70.10
39655;DHT22;25336;59.944;11.010;2024-02-21T12:49:52;5.70;70.20
39655;DHT22;25336;59.944;11.010;2024-02-21T12:52:18;5.70;70.30
39655;DHT22;25336;59.944;11.010;2024-02-21T12:54:44;5.60;70.30
39655;DHT22;25336;59.944;11.010;2024-02-21T12:57:10;5.60;70.30
39655;DHT22;25336;59.944;11.010;2024-02-21T12:59:35;5.50;70.10
39655;DHT22;25336;59.944;11.010;2024-02-21T13:02:01;5.40;70.10
39655;DHT22;25336;59.944;11.010;2024-02-21T13:04:27;5.40;70.40
39655;DHT22;25336;59.944;11.010;2024-02-21T13:06:52;5.40;71.50
39655;DHT22;25336;59.944;11.010;2024-02-21T13:09:18;5.30;70.80
39655;DHT22;25336;59.944;11.010;2024-02-21T13:11:45;5.30;70.90
39655;DHT22;25336;59.944;11.010;2024-02-21T13:14:11;5.30;71.10
39655;DHT22;25336;59.944;11.010;2024-02-21T13:16:37;5.40;71.20
39655;DHT22;25336;59.944;11.010;2024-02-21T13:19:06;5.40;71.20
39655;DHT22;25336;59.944;11.010;2024-02-21T13:21:34;5.30;71.10
39655;DHT22;25336;59.944;11.010;2024-02-21T13:24:01;5.40;71.10
39655;DHT22;25336;59.944;11.010;2024-02-21T13:26:26;5.40;71.20
39655;DHT22;25336;59.944;11.010;2024-02-21T13:28:53;5.40;71.10
39655;DHT22;25336;59.944;11.010;2024-02-21T13:31:18;5.40;71.20
39655;DHT22;25336;59.944;11.010;2024-02-21T13:33:44;5.40;71.10
39655;DHT22;25336;59.944;11.010;2024-02-21T13:36:10;5.30;71.10
39655;DHT22;25336;59.944;11.010;2024-02-21T13:38:36;5.30;71.00
39655;DHT22;25336;59.944;11.010;2024-02-21T13:41:02;5.30;71.10
39655;DHT22;25336;59.944;11.010;2024-02-21T13:43:28;5.30;71.10
39655;DHT22;25336;59.944;11.010;2024-02-21T13:45:59;5.30;71.20
39655;DHT22;25336;59.944;11.010;2024-02-21T13:48:25;5.30;71.20
39655;DHT22;25336;59.944;11.010;2024-02-21T13:50:51;4.60;70.90
39655;DHT22;25336;59.944;11.010;2024-02-21T13:53:16;5.30;71.50
39655;DHT22;25336;59.944;11.010;2024-02-21T13:55:46;5.30;71.50
39655;DHT22;25336;59.944;11.010;2024-02-21T13:58:11;5.30;71.40
39655;DHT22;25336;59.944;11.010;2024-02-21T14:00:37;5.30;71.40
39655;DHT22;25336;59.944;11.010;2024-02-21T14:03:03;5.30;71.50
39655;DHT22;25336;59.944;11.010;2024-02-21T14:05:29;5.30;71.30
39655;DHT22;25336;59.944;11.010;2024-02-21T14:07:55;5.40;71.30
39655;DHT22;25336;59.944;11.010;2024-02-21T14:10:22;5.30;71.20
39655;DHT22;25336;59.944;11.010;2024-02-21T14:12:47;5.40;71.20
39655;DHT22;25336;59.944;11.010;2024-02-21T14:15:14;5.40;71.30
39655;DHT22;25336;59.944;11.010;2024-02-21T14:17:40;5.40;71.20
39655;DHT22;25336;59.944;11.010;2024-02-21T14:20:07;5.40;71.10
39655;DHT22;25336;59.944;11.010;2024-02-21T14:22:33;5.40;71.00
39655;DHT22;25336;59.944;11.010;2024-02-21T14:25:00;5.40;71.00
39655;DHT22;25336;59.944;11.010;2024-02-21T14:27:26;5.40;71.10
39655;DHT22;25336;59.944;11.010;2024-02-21T14:29:51;5.40;71.10
39655;DHT22;25336;59.944;11.010;2024-02-21T14:32:19;5.40;71.10
39655;DHT22;25336;59.944;11.010;2024-02-21T14:34:45;5.40;70.90
39655;DHT22;25336;59.944;11.010;2024-02-21T14:37:11;5.40;70.90
39655;DHT22;25336;59.944;11.010;2024-02-21T14:39:37;5.40;70.90
39655;DHT22;25336;59.944;11.010;2024-02-21T14:42:03;5.40;70.90
39655;DHT22;25336;59.944;11.010;2024-02-21T14:44:31;5.40;71.00
39655;DHT22;25336;59.944;11.010;2024-02-21T14:46:58;5.40;71.00
39655;DHT22;25336;59.944;11.010;2024-02-21T14:49:23;3.80;69.90
39655;DHT22;25336;59.944;11.010;2024-02-21T14:51:51;5.40;70.90
39655;DHT22;25336;59.944;11.010;2024-02-21T14:54:16;5.40;70.90
39655;DHT22;25336;59.944;11.010;2024-02-21T14:56:42;5.30;71.60
39655;DHT22;25336;59.944;11.010;2024-02-21T14:59:08;5.40;70.80
39655;DHT22;25336;59.944;11.010;2024-02-21T15:01:37;5.40;71.00
39655;DHT22;25336;59.944;11.010;2024-02-21T15:04:06;5.30;70.90
39655;DHT22;25336;59.944;11.010;2024-02-21T15:06:32;5.30;70.70
39655;DHT22;25336;59.944;11.010;2024-02-21T15:08:58;5.30;70.80
39655;DHT22;25336;59.944;11.010;2024-02-21T15:11:24;5.30;70.70
39655;DHT22;25336;59.944;11.010;2024-02-21T15:13:50;5.30;70.80
39655;DHT22;25336;59.944;11.010;2024-02-21T15:16:17;5.30;70.90
39655;DHT22;25336;59.944;11.010;2024-02-21T15:18:42;5.30;70.80
39655;DHT22;25336;59.944;11.010;2024-02-21T15:21:08;5.30;70.80
39655;DHT22;25336;59.944;11.010;2024-02-21T15:23:39;5.20;70.70
39655;DHT22;25336;59.944;11.010;2024-02-21T15:26:05;5.20;70.70
39655;DHT22;25336;59.944;11.010;2024-02-21T15:28:30;5.20;70.70
39655;DHT22;25336;59.944;11.010;2024-02-21T15:30:56;5.20;70.80
39655;DHT22;25336;59.944;11.010;2024-02-21T15:33:22;5.10;70.80
39655;DHT22;25336;59.944;11.010;2024-02-21T15:35:48;5.10;70.90
39655;DHT22;25336;59.944;11.010;2024-02-21T15:38:14;5.10;70.90